Stations météo

réclame
Mon MeteoGroup
Salsburgh, Grande-Bretagne (99024): Température de l'air & dewpoint: 14.05.2019 03:00:00 - 20.05.2019 03:00:00 (BST)Salsburgh, Grande-Bretagne (99024): Vitesse du vent & gusts: 14.05.2019 03:00:00 - 20.05.2019 03:00:00 (BST)Salsburgh, Grande-Bretagne (99024): Direction du vent: 14.05.2019 03:00:00 - 20.05.2019 03:00:00 (BST)Salsburgh, Grande-Bretagne (99024): Quantités de précipitations: 14.05.2019 03:00:00 - 20.05.2019 03:00:00 (BST)
Date & Time tt [°C] td [°C] ff [km/h] ff [knt] fx [km/h] fx [knt] dd rr [mm]
20.05.2019 03:00:00 8,2 7,7 9 5 - - WSW 0,0
20.05.2019 02:00:00 7,8 7,7 8 4 - - SSW 0,0
20.05.2019 01:00:00 8,0 7,6 9 5 - - WSW 0,0
20.05.2019 00:00:00 8,1 7,5 11 6 - - WSW 0,0
19.05.2019 23:00:00 9,1 7,8 13 7 - - W 0,0
19.05.2019 22:00:00 9,4 8,1 15 8 - - W 0,0
19.05.2019 21:00:00 10,1 8,8 16 9 - - WSW 0,0
19.05.2019 20:00:00 10,3 9,1 9 5 - - WSW 0,0
19.05.2019 19:00:00 10,2 8,9 15 8 - - W 0,0
19.05.2019 18:00:00 10,5 8,8 11 6 - - W 0,0
19.05.2019 17:00:00 11,7 8,0 9 5 - - SW 0,0
19.05.2019 16:00:00 12,0 8,5 13 7 - - WSW 0,0
19.05.2019 15:00:00 10,9 7,9 15 8 - - SW 0,0
19.05.2019 14:00:00 12,4 8,5 13 7 - - SW 0,0
19.05.2019 13:00:00 12,1 8,3 11 6 - - WSW 0,0
19.05.2019 12:00:00 10,9 8,8 9 5 - - SW 0,0
19.05.2019 11:00:00 9,9 8,8 11 6 - - WSW 0,0
19.05.2019 10:00:00 9,0 8,7 13 7 - - SW 0,0
19.05.2019 09:00:00 8,7 8,7 13 7 - - SW 0,0
19.05.2019 08:00:00 8,3 8,3 13 7 - - WSW 0,2
19.05.2019 07:00:00 8,9 8,9 8 4 - - SW 0,2
19.05.2019 06:00:00 8,7 8,7 4 2 - - SSW 0,0
19.05.2019 05:00:00 8,8 8,8 2 1 - - SSE 0,2
19.05.2019 04:00:00 8,8 8,8 0 0 - - N 0,0
19.05.2019 03:00:00 8,8 8,7 2 1 - - ESE 0,0
19.05.2019 02:00:00 8,8 8,8 5 3 - - E 0,0
19.05.2019 01:00:00 8,9 8,8 5 3 - - E 0,0
19.05.2019 00:00:00 8,9 8,8 5 3 - - E 0,0
18.05.2019 23:00:00 8,9 8,7 5 3 - - NNE 0,4
18.05.2019 22:00:00 9,2 8,7 5 3 - - E 0,2
18.05.2019 21:00:00 9,4 9,0 4 2 - - NE 0,0
18.05.2019 20:00:00 9,6 8,9 8 4 - - NE 0,0
18.05.2019 19:00:00 9,7 8,7 5 3 - - NE 0,0
18.05.2019 18:00:00 9,8 8,5 11 6 - - NE 0,0
18.05.2019 17:00:00 9,9 8,6 11 6 - - E 0,0
18.05.2019 16:00:00 10,3 9,1 13 7 - - ENE 0,0
18.05.2019 15:00:00 9,4 8,9 16 9 - - NE 0,0
18.05.2019 14:00:00 9,2 9,0 15 8 - - NE 0,0
18.05.2019 13:00:00 8,9 8,8 16 9 - - NE 0,2
18.05.2019 12:00:00 8,7 8,6 18 10 - - NE 0,0
18.05.2019 11:00:00 8,4 8,3 18 10 - - NE 0,8
18.05.2019 10:00:00 8,5 8,4 22 12 - - NE 0,6
18.05.2019 09:00:00 8,5 8,4 24 13 - - NE 0,4
18.05.2019 08:00:00 8,3 8,3 24 13 - - NE 0,4
18.05.2019 07:00:00 8,3 8,2 21 11 - - NE 0,2
18.05.2019 06:00:00 8,2 8,2 24 13 - - NE 1,2
18.05.2019 05:00:00 8,1 8,1 26 14 - - NE 0,6
18.05.2019 04:00:00 8,0 7,9 28 15 46 25 NE 0,8
18.05.2019 03:00:00 8,0 7,9 31 17 46 25 NE 1,2
18.05.2019 02:00:00 7,8 7,8 26 14 - - NE 0,4
18.05.2019 01:00:00 7,7 7,6 28 15 - - NE 0,2
18.05.2019 00:00:00 7,7 7,5 24 13 - - NE 0,0
17.05.2019 23:00:00 8,0 7,2 18 10 - - NE 0,0
17.05.2019 22:00:00 8,2 7,3 22 12 - - NE 0,0
17.05.2019 21:00:00 8,8 6,3 28 15 - - ENE 0,0
17.05.2019 20:00:00 9,3 7,0 28 15 - - ENE 0,0
17.05.2019 19:00:00 10,1 7,1 22 12 - - ENE 0,0
17.05.2019 18:00:00 12,6 6,1 22 12 - - ENE 0,0
17.05.2019 17:00:00 14,5 6,1 28 15 46 25 ENE 0,0
17.05.2019 16:00:00 15,8 4,1 28 15 48 26 ENE 0,0
17.05.2019 15:00:00 15,7 3,4 28 15 - - ENE 0,0
17.05.2019 14:00:00 15,4 2,9 29 16 - - ENE 0,0
17.05.2019 13:00:00 14,8 4,3 26 14 - - NE 0,0
17.05.2019 12:00:00 14,3 4,3 28 15 - - NE 0,0
17.05.2019 11:00:00 11,9 5,7 28 15 - - ENE 0,0
17.05.2019 10:00:00 11,2 6,2 28 15 - - ENE 0,0
17.05.2019 09:00:00 9,6 6,1 21 11 - - NE 0,0
17.05.2019 08:00:00 7,8 6,0 24 13 - - NE 0,0
17.05.2019 07:00:00 7,3 6,1 24 13 - - NE 0,0
17.05.2019 06:00:00 7,1 6,3 24 13 - - NE 0,0
17.05.2019 05:00:00 7,1 6,0 22 12 - - ENE 0,0
17.05.2019 04:00:00 7,3 4,8 22 12 - - ENE 0,0
17.05.2019 03:00:00 7,2 4,3 21 11 - - ENE 0,0
17.05.2019 02:00:00 7,4 2,9 16 9 - - ENE 0,0
17.05.2019 01:00:00 7,5 2,9 18 10 - - E 0,0
17.05.2019 00:00:00 7,6 3,1 18 10 - - E 0,0
16.05.2019 23:00:00 8,3 4,1 22 12 - - E 0,0
16.05.2019 22:00:00 9,8 4,4 18 10 - - E 0,0
16.05.2019 21:00:00 11,5 4,2 18 10 - - E 0,0
16.05.2019 20:00:00 12,8 4,6 18 10 - - ESE 0,0
16.05.2019 19:00:00 14,8 5,7 26 14 - - ENE 0,0
16.05.2019 18:00:00 14,9 6,5 26 14 - - NE 0,0
16.05.2019 17:00:00 15,2 7,0 28 15 - - NE 0,0
16.05.2019 16:00:00 15,9 6,4 28 15 - - NE 0,0
16.05.2019 15:00:00 17,3 5,8 24 13 - - ENE 0,0
16.05.2019 14:00:00 17,0 2,5 16 9 - - E 0,0
16.05.2019 13:00:00 16,2 4,9 21 11 - - NE 0,0
16.05.2019 12:00:00 15,4 5,1 15 8 - - E 0,0
16.05.2019 11:00:00 13,7 6,7 16 9 - - ENE 0,0
16.05.2019 10:00:00 11,7 6,8 16 9 - - ENE 0,0
16.05.2019 09:00:00 10,1 7,7 21 11 - - ENE 0,0
16.05.2019 08:00:00 8,7 7,1 21 11 - - ENE 0,0
16.05.2019 07:00:00 7,9 6,9 21 11 - - ENE 0,0
16.05.2019 06:00:00 7,3 6,3 18 10 - - ENE 0,0
16.05.2019 05:00:00 7,1 6,4 21 11 - - ENE 0,0
16.05.2019 04:00:00 7,7 6,9 21 11 - - ENE 0,0
16.05.2019 03:00:00 7,8 7,1 21 11 - - ENE 0,0
16.05.2019 02:00:00 8,4 8,0 22 12 - - ENE 0,0
16.05.2019 01:00:00 8,9 8,2 24 13 - - ENE 0,0
16.05.2019 00:00:00 9,7 9,2 24 13 - - ENE 0,0
15.05.2019 23:00:00 10,1 9,2 21 11 - - ENE 0,0
15.05.2019 22:00:00 12,3 9,6 21 11 - - ENE 0,0
15.05.2019 21:00:00 13,8 9,6 16 9 - - ENE 0,0
15.05.2019 20:00:00 15,4 9,2 18 10 - - E 0,0
15.05.2019 19:00:00 17,2 7,9 21 11 - - ENE 0,0
15.05.2019 18:00:00 19,1 7,4 22 12 - - E 0,0
15.05.2019 17:00:00 20,2 9,0 22 12 - - ENE 0,0
15.05.2019 16:00:00 20,9 9,4 16 9 - - ENE 0,0
15.05.2019 15:00:00 20,4 9,2 16 9 - - ENE 0,0
15.05.2019 14:00:00 20,5 9,2 4 2 - - S 0,0
15.05.2019 13:00:00 20,2 8,5 9 5 - - SE 0,0
15.05.2019 12:00:00 19,0 8,6 9 5 - - SE 0,0
15.05.2019 11:00:00 17,1 7,7 8 4 - - S 0,0
15.05.2019 10:00:00 16,2 7,6 11 6 - - S 0,0
15.05.2019 09:00:00 15,1 6,8 13 7 - - S 0,0
15.05.2019 08:00:00 13,9 7,9 5 3 - - SW 0,0
15.05.2019 07:00:00 13,9 5,8 11 6 - - SSE 0,0
15.05.2019 06:00:00 12,1 5,2 15 8 - - SE 0,0
15.05.2019 05:00:00 11,6 5,1 15 8 - - SSE 0,0
15.05.2019 04:00:00 12,5 5,2 13 7 - - SE 0,0
15.05.2019 03:00:00 12,3 3,8 13 7 - - ESE 0,0
15.05.2019 02:00:00 11,9 3,2 11 6 - - E 0,0
15.05.2019 01:00:00 12,6 3,4 2 1 - - NW 0,0
15.05.2019 00:00:00 12,0 3,0 5 3 - - SW 0,0
14.05.2019 23:00:00 11,7 3,5 9 5 - - WSW 0,0
14.05.2019 22:00:00 12,8 4,8 9 5 - - WSW 0,0
14.05.2019 21:00:00 14,5 5,1 11 6 - - WNW 0,0
14.05.2019 20:00:00 16,8 6,4 9 5 - - W 0,0
14.05.2019 19:00:00 18,5 6,0 11 6 - - SW 0,0
14.05.2019 18:00:00 18,9 5,0 11 6 - - SW 0,0
14.05.2019 17:00:00 19,3 5,7 15 8 - - SSW 0,0
14.05.2019 16:00:00 19,4 7,8 16 9 - - S 0,0
14.05.2019 15:00:00 19,0 7,9 15 8 - - S 0,0
14.05.2019 14:00:00 18,5 6,3 16 9 - - S 0,0
14.05.2019 13:00:00 17,9 6,1 13 7 - - SSW 0,0
14.05.2019 12:00:00 16,8 6,3 8 4 - - S 0,0
14.05.2019 11:00:00 16,1 7,5 8 4 - - WSW 0,0
14.05.2019 10:00:00 14,2 6,0 9 5 - - S 0,0
14.05.2019 09:00:00 13,1 5,1 9 5 - - SSW 0,0
14.05.2019 08:00:00 12,1 5,4 5 3 - - S 0,0
14.05.2019 07:00:00 10,4 5,0 4 2 - - SE 0,0
14.05.2019 06:00:00 8,0 3,0 8 4 - - SSE 0,0
14.05.2019 05:00:00 7,9 3,1 8 4 - - SSE 0,0
14.05.2019 04:00:00 8,2 3,3 8 4 - - SSE 0,0
14.05.2019 03:00:00 8,0 3,3 16 9 - - SSE 0,0

tt = Température de l'air
td = dewpoint
ff = Vitesse du vent
fx = gusts
dd = Direction du vent
rr = Quantités de précipitations

stations d'obs. à proximité